sensor_id;sensor_type;location;lat;lon;timestamp;temperature;humidity
5675;DHT22;2860;54.284;10.158;2023-11-22T00:00:10;1.00;99.90
5675;DHT22;2860;54.284;10.158;2023-11-22T00:02:36;1.10;99.90
5675;DHT22;2860;54.284;10.158;2023-11-22T00:05:03;1.10;99.90
5675;DHT22;2860;54.284;10.158;2023-11-22T00:07:28;1.20;99.90
5675;DHT22;2860;54.284;10.158;2023-11-22T00:09:55;1.10;99.90
5675;DHT22;2860;54.284;10.158;2023-11-22T00:12:20;1.00;99.90
5675;DHT22;2860;54.284;10.158;2023-11-22T00:14:46;1.00;99.90
5675;DHT22;2860;54.284;10.158;2023-11-22T00:17:12;0.90;99.90
5675;DHT22;2860;54.284;10.158;2023-11-22T00:19:38;0.90;99.90
5675;DHT22;2860;54.284;10.158;2023-11-22T00:22:04;0.80;99.90
5675;DHT22;2860;54.284;10.158;2023-11-22T00:24:37;0.80;99.90
5675;DHT22;2860;54.284;10.158;2023-11-22T00:27:02;0.70;99.90
5675;DHT22;2860;54.284;10.158;2023-11-22T00:29:28;0.60;99.90
5675;DHT22;2860;54.284;10.158;2023-11-22T00:31:54;0.60;99.90
5675;DHT22;2860;54.284;10.158;2023-11-22T00:34:19;0.60;99.90
5675;DHT22;2860;54.284;10.158;2023-11-22T00:36:45;0.60;99.90
5675;DHT22;2860;54.284;10.158;2023-11-22T00:39:10;0.60;99.90
5675;DHT22;2860;54.284;10.158;2023-11-22T00:41:39;0.60;99.90
5675;DHT22;2860;54.284;10.158;2023-11-22T00:44:04;0.50;99.90
5675;DHT22;2860;54.284;10.158;2023-11-22T00:46:31;0.50;99.90
5675;DHT22;2860;54.284;10.158;2023-11-22T00:48:57;0.50;99.90
5675;DHT22;2860;54.284;10.158;2023-11-22T00:51:23;0.50;99.90
5675;DHT22;2860;54.284;10.158;2023-11-22T00:53:48;0.50;99.90
5675;DHT22;2860;54.284;10.158;2023-11-22T00:56:15;0.50;99.90
5675;DHT22;2860;54.284;10.158;2023-11-22T00:58:40;0.50;99.90
5675;DHT22;2860;54.284;10.158;2023-11-22T01:01:06;0.40;99.90
5675;DHT22;2860;54.284;10.158;2023-11-22T01:03:31;0.40;99.90
5675;DHT22;2860;54.284;10.158;2023-11-22T01:05:57;0.40;99.90
5675;DHT22;2860;54.284;10.158;2023-11-22T01:08:23;0.50;99.90
5675;DHT22;2860;54.284;10.158;2023-11-22T01:10:48;0.60;99.90
5675;DHT22;2860;54.284;10.158;2023-11-22T01:13:14;0.60;99.90
5675;DHT22;2860;54.284;10.158;2023-11-22T01:15:40;0.70;99.90
5675;DHT22;2860;54.284;10.158;2023-11-22T01:18:07;0.60;99.90
5675;DHT22;2860;54.284;10.158;2023-11-22T01:20:32;0.60;99.90
5675;DHT22;2860;54.284;10.158;2023-11-22T01:22:58;0.50;99.90
5675;DHT22;2860;54.284;10.158;2023-11-22T01:25:23;0.40;99.90
5675;DHT22;2860;54.284;10.158;2023-11-22T01:27:48;0.30;99.90
5675;DHT22;2860;54.284;10.158;2023-11-22T01:30:14;0.30;99.90
5675;DHT22;2860;54.284;10.158;2023-11-22T01:32:40;0.30;99.90
5675;DHT22;2860;54.284;10.158;2023-11-22T01:35:05;0.30;99.90
5675;DHT22;2860;54.284;10.158;2023-11-22T01:37:31;0.30;99.90
5675;DHT22;2860;54.284;10.158;2023-11-22T01:39:58;0.30;99.90
5675;DHT22;2860;54.284;10.158;2023-11-22T01:42:23;0.20;99.90
5675;DHT22;2860;54.284;10.158;2023-11-22T01:44:51;0.20;99.90
5675;DHT22;2860;54.284;10.158;2023-11-22T01:47:18;0.20;99.90
5675;DHT22;2860;54.284;10.158;2023-11-22T01:49:43;0.20;99.90
5675;DHT22;2860;54.284;10.158;2023-11-22T01:52:09;0.20;99.90
5675;DHT22;2860;54.284;10.158;2023-11-22T01:54:36;0.30;99.90
5675;DHT22;2860;54.284;10.158;2023-11-22T01:57:02;0.40;99.90
5675;DHT22;2860;54.284;10.158;2023-11-22T01:59:29;0.40;99.90
5675;DHT22;2860;54.284;10.158;2023-11-22T02:01:55;0.50;99.90
5675;DHT22;2860;54.284;10.158;2023-11-22T02:04:21;0.60;99.90
5675;DHT22;2860;54.284;10.158;2023-11-22T02:06:47;0.70;99.90
5675;DHT22;2860;54.284;10.158;2023-11-22T02:09:12;0.70;99.90
5675;DHT22;2860;54.284;10.158;2023-11-22T02:11:41;0.70;99.90
5675;DHT22;2860;54.284;10.158;2023-11-22T02:14:07;0.70;99.90
5675;DHT22;2860;54.284;10.158;2023-11-22T02:16:34;0.60;99.90
5675;DHT22;2860;54.284;10.158;2023-11-22T02:19:00;0.60;99.90
5675;DHT22;2860;54.284;10.158;2023-11-22T02:21:26;0.70;99.90
5675;DHT22;2860;54.284;10.158;2023-11-22T02:23:51;0.70;99.90
5675;DHT22;2860;54.284;10.158;2023-11-22T02:26:17;0.70;99.90
5675;DHT22;2860;54.284;10.158;2023-11-22T02:28:45;0.70;99.90
5675;DHT22;2860;54.284;10.158;2023-11-22T02:31:11;0.70;99.90
5675;DHT22;2860;54.284;10.158;2023-11-22T02:33:36;0.70;99.90
5675;DHT22;2860;54.284;10.158;2023-11-22T02:36:02;0.80;99.90
5675;DHT22;2860;54.284;10.158;2023-11-22T02:38:28;0.80;99.90
5675;DHT22;2860;54.284;10.158;2023-11-22T02:40:53;0.80;99.90
5675;DHT22;2860;54.284;10.158;2023-11-22T02:43:19;0.90;99.90
5675;DHT22;2860;54.284;10.158;2023-11-22T02:45:45;1.00;99.90
5675;DHT22;2860;54.284;10.158;2023-11-22T02:48:11;1.00;99.90
5675;DHT22;2860;54.284;10.158;2023-11-22T02:50:36;1.00;99.90
5675;DHT22;2860;54.284;10.158;2023-11-22T02:53:03;1.00;99.90
5675;DHT22;2860;54.284;10.158;2023-11-22T02:55:29;1.00;99.90
5675;DHT22;2860;54.284;10.158;2023-11-22T02:57:54;1.10;99.90
5675;DHT22;2860;54.284;10.158;2023-11-22T03:00:20;1.10;99.90
5675;DHT22;2860;54.284;10.158;2023-11-22T03:02:46;1.10;99.90
5675;DHT22;2860;54.284;10.158;2023-11-22T03:05:13;1.20;99.90
5675;DHT22;2860;54.284;10.158;2023-11-22T03:07:40;1.10;99.90
5675;DHT22;2860;54.284;10.158;2023-11-22T03:10:06;1.10;99.90
5675;DHT22;2860;54.284;10.158;2023-11-22T03:12:33;1.10;99.90
5675;DHT22;2860;54.284;10.158;2023-11-22T03:15:13;1.00;99.90
5675;DHT22;2860;54.284;10.158;2023-11-22T03:17:39;0.90;99.90
5675;DHT22;2860;54.284;10.158;2023-11-22T03:20:05;0.80;99.90
5675;DHT22;2860;54.284;10.158;2023-11-22T03:22:34;0.80;99.90
5675;DHT22;2860;54.284;10.158;2023-11-22T03:25:02;0.80;99.90
5675;DHT22;2860;54.284;10.158;2023-11-22T03:27:27;0.70;99.90
5675;DHT22;2860;54.284;10.158;2023-11-22T03:29:53;0.60;99.90
5675;DHT22;2860;54.284;10.158;2023-11-22T03:32:19;0.50;99.90
5675;DHT22;2860;54.284;10.158;2023-11-22T03:34:44;0.50;99.90
5675;DHT22;2860;54.284;10.158;2023-11-22T03:37:10;0.50;99.90
5675;DHT22;2860;54.284;10.158;2023-11-22T03:39:36;0.50;99.90
5675;DHT22;2860;54.284;10.158;2023-11-22T03:42:02;0.40;99.90
5675;DHT22;2860;54.284;10.158;2023-11-22T03:44:27;0.50;99.90
5675;DHT22;2860;54.284;10.158;2023-11-22T03:46:54;0.50;99.90
5675;DHT22;2860;54.284;10.158;2023-11-22T03:49:19;0.50;99.90
5675;DHT22;2860;54.284;10.158;2023-11-22T03:51:44;0.40;99.90
5675;DHT22;2860;54.284;10.158;2023-11-22T03:54:11;0.40;99.90
5675;DHT22;2860;54.284;10.158;2023-11-22T03:56:38;0.40;99.90
5675;DHT22;2860;54.284;10.158;2023-11-22T03:59:03;0.40;99.90
5675;DHT22;2860;54.284;10.158;2023-11-22T04:01:29;0.40;99.90
5675;DHT22;2860;54.284;10.158;2023-11-22T04:03:55;0.40;99.90
5675;DHT22;2860;54.284;10.158;2023-11-22T04:06:20;0.20;99.90
5675;DHT22;2860;54.284;10.158;2023-11-22T04:08:47;0.20;99.90
5675;DHT22;2860;54.284;10.158;2023-11-22T04:11:13;0.10;99.90
5675;DHT22;2860;54.284;10.158;2023-11-22T04:13:39;0.00;99.90
5675;DHT22;2860;54.284;10.158;2023-11-22T04:16:06;0.00;99.90
5675;DHT22;2860;54.284;10.158;2023-11-22T04:18:34;0.00;99.90
5675;DHT22;2860;54.284;10.158;2023-11-22T04:21:01;0.00;99.90
5675;DHT22;2860;54.284;10.158;2023-11-22T04:23:26;0.00;99.90
5675;DHT22;2860;54.284;10.158;2023-11-22T04:25:52;0.00;99.90
5675;DHT22;2860;54.284;10.158;2023-11-22T04:28:17;0.00;99.90
5675;DHT22;2860;54.284;10.158;2023-11-22T04:30:43;0.00;99.90
5675;DHT22;2860;54.284;10.158;2023-11-22T04:33:09;0.00;99.90
5675;DHT22;2860;54.284;10.158;2023-11-22T04:35:34;0.00;99.90
5675;DHT22;2860;54.284;10.158;2023-11-22T04:38:02;-0.10;99.90
5675;DHT22;2860;54.284;10.158;2023-11-22T04:40:29;-0.20;99.90
5675;DHT22;2860;54.284;10.158;2023-11-22T04:42:54;-0.20;99.90
5675;DHT22;2860;54.284;10.158;2023-11-22T04:45:20;-0.20;99.90
5675;DHT22;2860;54.284;10.158;2023-11-22T04:47:45;-0.20;99.90
5675;DHT22;2860;54.284;10.158;2023-11-22T04:50:11;-0.20;99.90
5675;DHT22;2860;54.284;10.158;2023-11-22T04:52:36;-0.20;99.90
5675;DHT22;2860;54.284;10.158;2023-11-22T04:55:02;-0.30;99.90
5675;DHT22;2860;54.284;10.158;2023-11-22T04:57:29;-0.30;99.90
5675;DHT22;2860;54.284;10.158;2023-11-22T04:59:55;-0.30;99.90
5675;DHT22;2860;54.284;10.158;2023-11-22T05:02:20;-0.30;99.90
5675;DHT22;2860;54.284;10.158;2023-11-22T05:04:46;-0.20;99.90
5675;DHT22;2860;54.284;10.158;2023-11-22T05:07:14;-0.20;99.90
5675;DHT22;2860;54.284;10.158;2023-11-22T05:09:40;-0.30;99.90
5675;DHT22;2860;54.284;10.158;2023-11-22T05:12:06;-0.40;99.90
5675;DHT22;2860;54.284;10.158;2023-11-22T05:14:31;-0.40;99.90
5675;DHT22;2860;54.284;10.158;2023-11-22T05:16:57;-0.30;99.90
5675;DHT22;2860;54.284;10.158;2023-11-22T05:19:22;-0.30;99.90
5675;DHT22;2860;54.284;10.158;2023-11-22T05:21:48;-0.30;99.90
5675;DHT22;2860;54.284;10.158;2023-11-22T05:24:13;-0.20;99.90
5675;DHT22;2860;54.284;10.158;2023-11-22T05:26:40;-0.20;99.90
5675;DHT22;2860;54.284;10.158;2023-11-22T05:29:06;-0.20;99.90
5675;DHT22;2860;54.284;10.158;2023-11-22T05:31:31;-0.30;99.90
5675;DHT22;2860;54.284;10.158;2023-11-22T05:33:57;-0.40;99.90
5675;DHT22;2860;54.284;10.158;2023-11-22T05:36:22;-0.40;99.90
5675;DHT22;2860;54.284;10.158;2023-11-22T05:38:48;-0.40;99.90
5675;DHT22;2860;54.284;10.158;2023-11-22T05:41:13;-0.30;99.90
5675;DHT22;2860;54.284;10.158;2023-11-22T05:43:39;-0.30;99.90
5675;DHT22;2860;54.284;10.158;2023-11-22T05:46:07;-0.30;99.90
5675;DHT22;2860;54.284;10.158;2023-11-22T05:48:32;-0.30;99.90
5675;DHT22;2860;54.284;10.158;2023-11-22T05:50:59;-0.40;99.90
5675;DHT22;2860;54.284;10.158;2023-11-22T05:53:25;-0.40;99.90
5675;DHT22;2860;54.284;10.158;2023-11-22T05:55:50;-0.40;99.90
5675;DHT22;2860;54.284;10.158;2023-11-22T05:58:17;-0.50;99.90
5675;DHT22;2860;54.284;10.158;2023-11-22T06:00:43;-0.50;99.90
5675;DHT22;2860;54.284;10.158;2023-11-22T06:03:10;-0.50;99.90
5675;DHT22;2860;54.284;10.158;2023-11-22T06:05:35;-0.50;99.90
5675;DHT22;2860;54.284;10.158;2023-11-22T06:08:01;-0.50;99.90
5675;DHT22;2860;54.284;10.158;2023-11-22T06:10:26;-0.50;99.90
5675;DHT22;2860;54.284;10.158;2023-11-22T06:12:52;-0.60;99.90
5675;DHT22;2860;54.284;10.158;2023-11-22T06:15:17;-0.60;99.90
5675;DHT22;2860;54.284;10.158;2023-11-22T06:17:46;-0.50;99.90
5675;DHT22;2860;54.284;10.158;2023-11-22T06:20:12;-0.50;99.90
5675;DHT22;2860;54.284;10.158;2023-11-22T06:22:38;-0.50;99.90
5675;DHT22;2860;54.284;10.158;2023-11-22T06:25:09;-0.50;99.90
5675;DHT22;2860;54.284;10.158;2023-11-22T06:27:38;-0.50;99.90
5675;DHT22;2860;54.284;10.158;2023-11-22T06:30:05;-0.50;99.90
5675;DHT22;2860;54.284;10.158;2023-11-22T06:32:32;-0.60;99.90
5675;DHT22;2860;54.284;10.158;2023-11-22T06:34:57;-0.50;99.90
5675;DHT22;2860;54.284;10.158;2023-11-22T06:37:23;-0.50;99.90
5675;DHT22;2860;54.284;10.158;2023-11-22T06:39:48;-0.40;99.90
5675;DHT22;2860;54.284;10.158;2023-11-22T06:42:14;-0.40;99.90
5675;DHT22;2860;54.284;10.158;2023-11-22T06:44:39;-0.40;99.90
5675;DHT22;2860;54.284;10.158;2023-11-22T06:47:05;-0.30;99.90
5675;DHT22;2860;54.284;10.158;2023-11-22T06:49:32;-0.30;99.90
5675;DHT22;2860;54.284;10.158;2023-11-22T06:51:58;-0.20;99.90
5675;DHT22;2860;54.284;10.158;2023-11-22T06:54:23;-0.20;99.90
5675;DHT22;2860;54.284;10.158;2023-11-22T06:56:49;-0.20;99.90
5675;DHT22;2860;54.284;10.158;2023-11-22T06:59:16;-0.20;99.90
5675;DHT22;2860;54.284;10.158;2023-11-22T07:01:42;-0.10;99.90
5675;DHT22;2860;54.284;10.158;2023-11-22T07:04:08;-0.20;99.90
5675;DHT22;2860;54.284;10.158;2023-11-22T07:06:33;-0.20;99.90
5675;DHT22;2860;54.284;10.158;2023-11-22T07:08:59;-0.20;99.90
5675;DHT22;2860;54.284;10.158;2023-11-22T07:11:25;-0.20;99.90
5675;DHT22;2860;54.284;10.158;2023-11-22T07:13:51;-0.20;99.90
5675;DHT22;2860;54.284;10.158;2023-11-22T07:16:18;-0.20;99.90
5675;DHT22;2860;54.284;10.158;2023-11-22T07:18:44;-0.10;99.90
5675;DHT22;2860;54.284;10.158;2023-11-22T07:21:11;-0.10;99.90
5675;DHT22;2860;54.284;10.158;2023-11-22T07:23:37;-0.10;99.90
5675;DHT22;2860;54.284;10.158;2023-11-22T07:26:03;0.00;99.90
5675;DHT22;2860;54.284;10.158;2023-11-22T07:28:29;0.00;99.90
5675;DHT22;2860;54.284;10.158;2023-11-22T07:30:56;0.00;99.90
5675;DHT22;2860;54.284;10.158;2023-11-22T07:33:22;0.10;99.90
5675;DHT22;2860;54.284;10.158;2023-11-22T07:35:47;0.10;99.90
5675;DHT22;2860;54.284;10.158;2023-11-22T07:38:13;0.10;99.90
5675;DHT22;2860;54.284;10.158;2023-11-22T07:40:39;0.20;99.90
5675;DHT22;2860;54.284;10.158;2023-11-22T07:43:05;0.20;99.90
5675;DHT22;2860;54.284;10.158;2023-11-22T07:45:31;0.30;99.90
5675;DHT22;2860;54.284;10.158;2023-11-22T07:47:57;0.30;99.90
5675;DHT22;2860;54.284;10.158;2023-11-22T07:50:27;0.30;99.90
5675;DHT22;2860;54.284;10.158;2023-11-22T07:52:52;0.30;99.90
5675;DHT22;2860;54.284;10.158;2023-11-22T07:55:18;0.30;99.90
5675;DHT22;2860;54.284;10.158;2023-11-22T07:57:44;0.40;99.90
5675;DHT22;2860;54.284;10.158;2023-11-22T08:00:11;0.40;99.90
5675;DHT22;2860;54.284;10.158;2023-11-22T08:02:37;0.40;99.90
5675;DHT22;2860;54.284;10.158;2023-11-22T08:05:05;0.40;99.90
5675;DHT22;2860;54.284;10.158;2023-11-22T08:07:36;0.40;99.90
5675;DHT22;2860;54.284;10.158;2023-11-22T08:10:07;0.50;99.90
5675;DHT22;2860;54.284;10.158;2023-11-22T08:12:47;0.50;99.90
5675;DHT22;2860;54.284;10.158;2023-11-22T08:15:15;0.60;99.90
5675;DHT22;2860;54.284;10.158;2023-11-22T08:17:41;0.70;99.90
5675;DHT22;2860;54.284;10.158;2023-11-22T08:20:08;0.70;99.90
5675;DHT22;2860;54.284;10.158;2023-11-22T08:22:39;0.70;99.90
5675;DHT22;2860;54.284;10.158;2023-11-22T08:25:08;0.80;99.90
5675;DHT22;2860;54.284;10.158;2023-11-22T08:27:34;0.80;99.90
5675;DHT22;2860;54.284;10.158;2023-11-22T08:30:00;0.80;99.90
5675;DHT22;2860;54.284;10.158;2023-11-22T08:32:33;0.90;99.90
5675;DHT22;2860;54.284;10.158;2023-11-22T08:34:58;0.90;99.90
5675;DHT22;2860;54.284;10.158;2023-11-22T08:37:24;1.00;99.90
5675;DHT22;2860;54.284;10.158;2023-11-22T08:39:49;1.00;99.90
5675;DHT22;2860;54.284;10.158;2023-11-22T08:42:15;1.10;99.90
5675;DHT22;2860;54.284;10.158;2023-11-22T08:44:41;1.10;99.90
5675;DHT22;2860;54.284;10.158;2023-11-22T08:47:06;1.20;99.90
5675;DHT22;2860;54.284;10.158;2023-11-22T08:49:33;1.20;99.90
5675;DHT22;2860;54.284;10.158;2023-11-22T08:51:59;1.30;99.90
5675;DHT22;2860;54.284;10.158;2023-11-22T08:54:28;1.30;99.90
5675;DHT22;2860;54.284;10.158;2023-11-22T08:56:54;1.30;99.90
5675;DHT22;2860;54.284;10.158;2023-11-22T08:59:21;1.40;99.90
5675;DHT22;2860;54.284;10.158;2023-11-22T09:01:47;1.40;99.90
5675;DHT22;2860;54.284;10.158;2023-11-22T09:04:12;1.50;99.90
5675;DHT22;2860;54.284;10.158;2023-11-22T09:06:39;1.50;99.90
5675;DHT22;2860;54.284;10.158;2023-11-22T09:09:04;1.60;99.90
5675;DHT22;2860;54.284;10.158;2023-11-22T09:11:30;1.60;99.90
5675;DHT22;2860;54.284;10.158;2023-11-22T09:13:57;1.70;99.90
5675;DHT22;2860;54.284;10.158;2023-11-22T09:16:23;1.70;99.90
5675;DHT22;2860;54.284;10.158;2023-11-22T09:18:50;1.80;99.90
5675;DHT22;2860;54.284;10.158;2023-11-22T09:21:16;1.90;99.90
5675;DHT22;2860;54.284;10.158;2023-11-22T09:23:42;1.90;99.90
5675;DHT22;2860;54.284;10.158;2023-11-22T09:26:08;2.00;99.90
5675;DHT22;2860;54.284;10.158;2023-11-22T09:28:33;2.00;99.90
5675;DHT22;2860;54.284;10.158;2023-11-22T09:30:59;2.10;99.90
5675;DHT22;2860;54.284;10.158;2023-11-22T09:33:32;2.10;99.90
5675;DHT22;2860;54.284;10.158;2023-11-22T09:35:57;2.20;99.90
5675;DHT22;2860;54.284;10.158;2023-11-22T09:38:29;2.20;99.90
5675;DHT22;2860;54.284;10.158;2023-11-22T09:40:54;2.20;99.90
5675;DHT22;2860;54.284;10.158;2023-11-22T09:43:22;2.30;99.90
5675;DHT22;2860;54.284;10.158;2023-11-22T09:45:50;2.30;99.90
5675;DHT22;2860;54.284;10.158;2023-11-22T09:48:17;2.40;99.90
5675;DHT22;2860;54.284;10.158;2023-11-22T09:56:08;2.60;99.90
5675;DHT22;2860;54.284;10.158;2023-11-22T09:58:37;2.60;99.90
5675;DHT22;2860;54.284;10.158;2023-11-22T10:01:03;2.60;99.90
5675;DHT22;2860;54.284;10.158;2023-11-22T10:03:29;2.70;99.90
5675;DHT22;2860;54.284;10.158;2023-11-22T10:05:59;2.70;99.90
5675;DHT22;2860;54.284;10.158;2023-11-22T10:08:27;2.80;99.90
5675;DHT22;2860;54.284;10.158;2023-11-22T10:10:55;2.90;99.90
5675;DHT22;2860;54.284;10.158;2023-11-22T10:13:21;2.90;99.90
5675;DHT22;2860;54.284;10.158;2023-11-22T10:15:50;3.00;99.90
5675;DHT22;2860;54.284;10.158;2023-11-22T10:18:16;3.00;99.90
5675;DHT22;2860;54.284;10.158;2023-11-22T10:20:44;3.00;99.90
5675;DHT22;2860;54.284;10.158;2023-11-22T10:23:15;3.10;99.90
5675;DHT22;2860;54.284;10.158;2023-11-22T10:25:44;3.10;99.90
5675;DHT22;2860;54.284;10.158;2023-11-22T10:28:11;3.20;99.90
5675;DHT22;2860;54.284;10.158;2023-11-22T10:30:37;3.20;99.90
5675;DHT22;2860;54.284;10.158;2023-11-22T10:33:06;3.20;99.90
5675;DHT22;2860;54.284;10.158;2023-11-22T10:35:31;3.20;99.90
5675;DHT22;2860;54.284;10.158;2023-11-22T10:37:59;3.30;99.90
5675;DHT22;2860;54.284;10.158;2023-11-22T10:40:28;3.30;99.90
5675;DHT22;2860;54.284;10.158;2023-11-22T10:42:56;3.30;99.90
5675;DHT22;2860;54.284;10.158;2023-11-22T10:45:23;3.40;99.90
5675;DHT22;2860;54.284;10.158;2023-11-22T10:47:50;3.40;99.90
5675;DHT22;2860;54.284;10.158;2023-11-22T10:50:17;3.50;99.90
5675;DHT22;2860;54.284;10.158;2023-11-22T10:52:43;3.50;99.90
5675;DHT22;2860;54.284;10.158;2023-11-22T10:55:11;3.50;99.90
5675;DHT22;2860;54.284;10.158;2023-11-22T10:57:51;3.50;99.90
5675;DHT22;2860;54.284;10.158;2023-11-22T11:00:19;3.60;99.90
5675;DHT22;2860;54.284;10.158;2023-11-22T11:02:55;3.60;99.90
5675;DHT22;2860;54.284;10.158;2023-11-22T11:05:27;3.60;99.90
5675;DHT22;2860;54.284;10.158;2023-11-22T11:08:02;3.70;99.90
5675;DHT22;2860;54.284;10.158;2023-11-22T11:10:34;3.70;99.90
5675;DHT22;2860;54.284;10.158;2023-11-22T11:13:01;3.80;99.90
5675;DHT22;2860;54.284;10.158;2023-11-22T11:15:26;3.80;99.90
5675;DHT22;2860;54.284;10.158;2023-11-22T11:17:53;3.80;99.90
5675;DHT22;2860;54.284;10.158;2023-11-22T11:20:19;3.80;99.90
5675;DHT22;2860;54.284;10.158;2023-11-22T11:22:49;3.80;99.90
5675;DHT22;2860;54.284;10.158;2023-11-22T11:25:15;3.90;99.90
5675;DHT22;2860;54.284;10.158;2023-11-22T11:27:45;3.90;99.90
5675;DHT22;2860;54.284;10.158;2023-11-22T11:32:58;4.00;99.90
5675;DHT22;2860;54.284;10.158;2023-11-22T11:35:47;4.10;99.90
5675;DHT22;2860;54.284;10.158;2023-11-22T11:38:14;4.10;99.90
5675;DHT22;2860;54.284;10.158;2023-11-22T11:40:41;4.10;99.90
5675;DHT22;2860;54.284;10.158;2023-11-22T11:43:07;4.10;99.90
5675;DHT22;2860;54.284;10.158;2023-11-22T11:45:40;4.10;99.90
5675;DHT22;2860;54.284;10.158;2023-11-22T11:48:12;4.10;99.90
5675;DHT22;2860;54.284;10.158;2023-11-22T11:50:39;4.10;99.90
5675;DHT22;2860;54.284;10.158;2023-11-22T11:53:04;4.10;99.90
5675;DHT22;2860;54.284;10.158;2023-11-22T11:55:30;4.10;99.90
5675;DHT22;2860;54.284;10.158;2023-11-22T11:57:56;4.10;99.90
5675;DHT22;2860;54.284;10.158;2023-11-22T12:00:22;4.10;99.90
5675;DHT22;2860;54.284;10.158;2023-11-22T12:02:50;4.10;99.90
5675;DHT22;2860;54.284;10.158;2023-11-22T12:05:18;4.10;99.90
5675;DHT22;2860;54.284;10.158;2023-11-22T12:07:44;4.10;99.90
5675;DHT22;2860;54.284;10.158;2023-11-22T12:10:09;4.10;99.90
5675;DHT22;2860;54.284;10.158;2023-11-22T12:12:35;4.10;99.90
5675;DHT22;2860;54.284;10.158;2023-11-22T12:15:01;4.10;99.90
5675;DHT22;2860;54.284;10.158;2023-11-22T12:17:27;4.00;99.90
5675;DHT22;2860;54.284;10.158;2023-11-22T12:20:12;4.00;99.90
5675;DHT22;2860;54.284;10.158;2023-11-22T12:22:39;3.90;99.90
5675;DHT22;2860;54.284;10.158;2023-11-22T12:25:06;3.90;99.90
5675;DHT22;2860;54.284;10.158;2023-11-22T12:27:32;3.90;99.90
5675;DHT22;2860;54.284;10.158;2023-11-22T12:29:57;3.80;99.90
5675;DHT22;2860;54.284;10.158;2023-11-22T12:32:24;3.80;99.90
5675;DHT22;2860;54.284;10.158;2023-11-22T12:34:50;3.80;99.90
5675;DHT22;2860;54.284;10.158;2023-11-22T12:37:21;3.80;99.90
5675;DHT22;2860;54.284;10.158;2023-11-22T12:39:50;3.80;99.90
5675;DHT22;2860;54.284;10.158;2023-11-22T12:42:18;3.70;99.90
5675;DHT22;2860;54.284;10.158;2023-11-22T12:44:52;3.70;99.90
5675;DHT22;2860;54.284;10.158;2023-11-22T12:47:44;3.70;99.90
5675;DHT22;2860;54.284;10.158;2023-11-22T12:50:32;3.70;99.90
5675;DHT22;2860;54.284;10.158;2023-11-22T12:53:00;3.70;99.90
5675;DHT22;2860;54.284;10.158;2023-11-22T12:55:32;3.60;99.90
5675;DHT22;2860;54.284;10.158;2023-11-22T12:57:58;3.60;99.90
5675;DHT22;2860;54.284;10.158;2023-11-22T13:00:29;3.60;99.90
5675;DHT22;2860;54.284;10.158;2023-11-22T13:02:56;3.60;99.90
5675;DHT22;2860;54.284;10.158;2023-11-22T13:05:24;3.60;99.90
5675;DHT22;2860;54.284;10.158;2023-11-22T13:07:50;3.60;99.90
5675;DHT22;2860;54.284;10.158;2023-11-22T13:10:19;3.50;99.90
5675;DHT22;2860;54.284;10.158;2023-11-22T13:12:50;3.50;99.90
5675;DHT22;2860;54.284;10.158;2023-11-22T13:15:16;3.50;99.90
5675;DHT22;2860;54.284;10.158;2023-11-22T13:17:42;3.50;99.90
5675;DHT22;2860;54.284;10.158;2023-11-22T13:20:08;3.50;99.90
5675;DHT22;2860;54.284;10.158;2023-11-22T13:22:42;3.50;99.90
5675;DHT22;2860;54.284;10.158;2023-11-22T13:25:08;3.40;99.90
5675;DHT22;2860;54.284;10.158;2023-11-22T13:27:39;3.40;99.90
5675;DHT22;2860;54.284;10.158;2023-11-22T13:30:06;3.40;99.90
5675;DHT22;2860;54.284;10.158;2023-11-22T13:32:32;3.40;99.90
5675;DHT22;2860;54.284;10.158;2023-11-22T13:34:58;3.40;99.90
5675;DHT22;2860;54.284;10.158;2023-11-22T13:37:24;3.40;99.90
5675;DHT22;2860;54.284;10.158;2023-11-22T13:39:49;3.30;99.90
5675;DHT22;2860;54.284;10.158;2023-11-22T13:42:15;3.30;99.90
5675;DHT22;2860;54.284;10.158;2023-11-22T13:44:41;3.30;99.90
5675;DHT22;2860;54.284;10.158;2023-11-22T13:47:07;3.30;99.90
5675;DHT22;2860;54.284;10.158;2023-11-22T13:49:33;3.20;99.90
5675;DHT22;2860;54.284;10.158;2023-11-22T13:52:02;3.20;99.90
5675;DHT22;2860;54.284;10.158;2023-11-22T13:54:28;3.20;99.90
5675;DHT22;2860;54.284;10.158;2023-11-22T13:56:54;3.10;99.90
5675;DHT22;2860;54.284;10.158;2023-11-22T13:59:19;3.10;99.90
5675;DHT22;2860;54.284;10.158;2023-11-22T14:01:45;3.10;99.90
5675;DHT22;2860;54.284;10.158;2023-11-22T14:04:11;3.10;99.90
5675;DHT22;2860;54.284;10.158;2023-11-22T14:06:36;3.10;99.90
5675;DHT22;2860;54.284;10.158;2023-11-22T14:09:02;3.00;99.90
5675;DHT22;2860;54.284;10.158;2023-11-22T14:11:28;3.00;99.90
5675;DHT22;2860;54.284;10.158;2023-11-22T14:13:55;3.00;99.90
5675;DHT22;2860;54.284;10.158;2023-11-22T14:16:20;3.00;99.90
5675;DHT22;2860;54.284;10.158;2023-11-22T14:18:46;3.00;99.90
5675;DHT22;2860;54.284;10.158;2023-11-22T14:21:12;3.00;99.90
5675;DHT22;2860;54.284;10.158;2023-11-22T14:23:37;3.00;99.90
5675;DHT22;2860;54.284;10.158;2023-11-22T14:26:03;3.00;99.90
5675;DHT22;2860;54.284;10.158;2023-11-22T14:28:28;3.00;99.90
5675;DHT22;2860;54.284;10.158;2023-11-22T14:30:55;2.90;99.90
5675;DHT22;2860;54.284;10.158;2023-11-22T14:33:21;2.90;99.90
5675;DHT22;2860;54.284;10.158;2023-11-22T14:35:46;2.90;99.90
5675;DHT22;2860;54.284;10.158;2023-11-22T14:38:12;2.90;99.90
5675;DHT22;2860;54.284;10.158;2023-11-22T14:40:39;2.90;99.90
5675;DHT22;2860;54.284;10.158;2023-11-22T14:43:06;2.90;99.90
5675;DHT22;2860;54.284;10.158;2023-11-22T14:45:31;2.90;99.90
5675;DHT22;2860;54.284;10.158;2023-11-22T14:47:58;2.90;99.90
5675;DHT22;2860;54.284;10.158;2023-11-22T14:50:24;2.80;99.90
5675;DHT22;2860;54.284;10.158;2023-11-22T14:52:53;2.80;99.90
5675;DHT22;2860;54.284;10.158;2023-11-22T14:55:18;2.80;99.90
5675;DHT22;2860;54.284;10.158;2023-11-22T14:57:46;2.80;99.90
5675;DHT22;2860;54.284;10.158;2023-11-22T15:00:12;2.80;99.90
5675;DHT22;2860;54.284;10.158;2023-11-22T15:02:41;2.80;99.90
5675;DHT22;2860;54.284;10.158;2023-11-22T15:05:09;2.80;99.90
5675;DHT22;2860;54.284;10.158;2023-11-22T15:07:37;2.70;99.90
5675;DHT22;2860;54.284;10.158;2023-11-22T15:10:04;2.70;99.90
5675;DHT22;2860;54.284;10.158;2023-11-22T15:12:29;2.70;99.90
5675;DHT22;2860;54.284;10.158;2023-11-22T15:14:56;2.70;99.90
5675;DHT22;2860;54.284;10.158;2023-11-22T15:17:22;2.70;99.90
5675;DHT22;2860;54.284;10.158;2023-11-22T15:19:47;2.70;99.90
5675;DHT22;2860;54.284;10.158;2023-11-22T15:22:13;2.70;99.90
5675;DHT22;2860;54.284;10.158;2023-11-22T15:24:39;2.70;99.90
5675;DHT22;2860;54.284;10.158;2023-11-22T15:27:04;2.70;99.90
5675;DHT22;2860;54.284;10.158;2023-11-22T15:29:30;2.70;99.90
5675;DHT22;2860;54.284;10.158;2023-11-22T15:31:57;2.70;99.90
5675;DHT22;2860;54.284;10.158;2023-11-22T15:34:23;2.70;99.90
5675;DHT22;2860;54.284;10.158;2023-11-22T15:36:48;2.70;99.90
5675;DHT22;2860;54.284;10.158;2023-11-22T15:39:14;2.70;99.90
5675;DHT22;2860;54.284;10.158;2023-11-22T15:41:43;2.70;99.90
5675;DHT22;2860;54.284;10.158;2023-11-22T15:44:09;2.70;99.90
5675;DHT22;2860;54.284;10.158;2023-11-22T15:46:34;2.70;99.90
5675;DHT22;2860;54.284;10.158;2023-11-22T15:49:00;2.70;99.90
5675;DHT22;2860;54.284;10.158;2023-11-22T15:51:26;2.70;99.90
5675;DHT22;2860;54.284;10.158;2023-11-22T15:53:52;2.70;99.90
5675;DHT22;2860;54.284;10.158;2023-11-22T15:56:17;2.70;99.90
5675;DHT22;2860;54.284;10.158;2023-11-22T15:58:44;2.60;99.90
5675;DHT22;2860;54.284;10.158;2023-11-22T16:01:10;2.60;99.90
5675;DHT22;2860;54.284;10.158;2023-11-22T16:03:37;2.60;99.90